createdAt,value
2023-02-12T00:00:53.274Z,51.20
2023-02-12T00:01:53.239Z,50.40
2023-02-12T00:02:53.228Z,48.70
2023-02-12T00:03:53.292Z,52.00
2023-02-12T00:04:53.203Z,53.30
2023-02-12T00:05:53.386Z,52.10
2023-02-12T00:06:53.178Z,51.50
2023-02-12T00:07:53.184Z,48.30
2023-02-12T00:08:53.164Z,50.40
2023-02-12T00:09:53.148Z,51.10
2023-02-12T00:10:53.171Z,50.60
2023-02-12T00:11:53.143Z,49.30
2023-02-12T00:12:53.137Z,52.10
2023-02-12T00:13:53.112Z,51.30
2023-02-12T00:14:53.099Z,50.10
2023-02-12T00:15:53.256Z,50.00
2023-02-12T00:16:53.101Z,49.60
2023-02-12T00:17:53.059Z,50.80
2023-02-12T00:18:53.103Z,53.90
2023-02-12T00:19:53.084Z,50.70
2023-02-12T00:20:53.031Z,53.50
2023-02-12T00:21:53.050Z,52.30
2023-02-12T00:22:53.014Z,51.70
2023-02-12T00:23:53.005Z,54.10
2023-02-12T00:24:53.013Z,48.10
2023-02-12T00:25:53.343Z,51.10
2023-02-12T00:26:52.966Z,50.30
2023-02-12T00:27:52.959Z,52.40
2023-02-12T00:28:52.982Z,51.10
2023-02-12T00:29:52.942Z,50.90
2023-02-12T00:30:53.181Z,53.60
2023-02-12T00:31:53.014Z,53.80
2023-02-12T00:32:52.911Z,55.50
2023-02-12T00:33:52.900Z,53.80
2023-02-12T00:34:52.903Z,53.00
2023-02-12T00:35:53.324Z,50.00
2023-02-12T00:36:52.875Z,51.80
2023-02-12T00:37:52.860Z,51.50
2023-02-12T00:38:52.854Z,53.10
2023-02-12T00:39:52.864Z,54.60
2023-02-12T00:40:53.838Z,52.00
2023-02-12T00:41:52.875Z,54.00
2023-02-12T00:42:52.803Z,51.80
2023-02-12T00:43:52.831Z,52.70
2023-02-12T00:44:52.824Z,52.80
2023-02-12T00:45:53.095Z,51.00
2023-02-12T00:46:52.769Z,54.30
2023-02-12T00:47:52.759Z,53.30
2023-02-12T00:48:52.759Z,54.90
2023-02-12T00:49:52.768Z,53.70
2023-02-12T00:50:52.801Z,57.70
2023-02-12T00:51:52.723Z,54.20
2023-02-12T00:52:52.738Z,51.50
2023-02-12T00:53:52.705Z,50.90
2023-02-12T00:54:52.694Z,55.80
2023-02-12T00:55:53.028Z,51.70
2023-02-12T00:56:52.690Z,53.10
2023-02-12T00:57:52.683Z,49.30
2023-02-12T00:58:52.653Z,51.50
2023-02-12T00:59:52.665Z,51.60
2023-02-12T01:00:52.643Z,54.70
2023-02-12T01:01:52.716Z,52.10
2023-02-12T01:02:52.603Z,54.10
2023-02-12T01:03:52.602Z,51.80
2023-02-12T01:04:52.625Z,56.60
2023-02-12T01:05:52.963Z,54.80
2023-02-12T01:06:52.577Z,53.00
2023-02-12T01:07:52.587Z,54.10
2023-02-12T01:08:52.559Z,52.80
2023-02-12T01:09:52.572Z,51.60
2023-02-12T01:10:52.556Z,58.70
2023-02-12T01:11:52.551Z,51.30
2023-02-12T01:12:52.540Z,53.70
2023-02-12T01:13:52.530Z,54.20
2023-02-12T01:14:52.521Z,54.70
2023-02-12T01:15:52.694Z,55.00
2023-02-12T01:16:52.477Z,54.50
2023-02-12T01:17:52.487Z,54.40
2023-02-12T01:18:55.271Z,53.20
2023-02-12T01:19:53.454Z,56.80
2023-02-12T01:20:52.458Z,50.70
2023-02-12T01:21:52.435Z,54.00
2023-02-12T01:22:52.422Z,52.50
2023-02-12T01:23:52.407Z,51.90
2023-02-12T01:24:52.422Z,55.80
2023-02-12T01:25:52.750Z,53.80
2023-02-12T01:26:52.445Z,54.00
2023-02-12T01:27:52.363Z,51.70
2023-02-12T01:28:52.351Z,58.10
2023-02-12T01:29:52.376Z,52.70
2023-02-12T01:30:52.468Z,53.70
2023-02-12T01:31:52.431Z,53.30
2023-02-12T01:32:52.345Z,54.60
2023-02-12T01:33:52.344Z,52.10
2023-02-12T01:34:52.300Z,52.90
2023-02-12T01:35:52.461Z,52.30
2023-02-12T01:36:52.289Z,52.30
2023-02-12T01:37:52.273Z,53.20
2023-02-12T01:38:52.262Z,54.90
2023-02-12T01:39:52.269Z,53.00
2023-02-12T01:40:52.234Z,53.60
2023-02-12T01:41:52.268Z,56.20
2023-02-12T01:42:52.214Z,54.50
2023-02-12T01:43:52.208Z,52.90
2023-02-12T01:44:52.204Z,54.80
2023-02-12T01:45:52.319Z,54.60
2023-02-12T01:46:52.332Z,56.20
2023-02-12T01:47:52.172Z,54.50
2023-02-12T01:48:52.161Z,52.80
2023-02-12T01:49:52.142Z,52.30
2023-02-12T01:50:52.154Z,50.40
2023-02-12T01:51:52.376Z,55.10
2023-02-12T01:52:52.122Z,56.70
2023-02-12T01:53:52.116Z,57.40
2023-02-12T01:54:52.135Z,54.80
2023-02-12T01:55:52.119Z,54.20
2023-02-12T01:56:52.095Z,56.50
2023-02-12T01:57:52.084Z,57.40
2023-02-12T01:58:53.068Z,55.90
2023-02-12T01:59:52.052Z,54.10
2023-02-12T02:00:52.042Z,51.60
2023-02-12T02:01:52.100Z,59.50
2023-02-12T02:02:52.071Z,54.80
2023-02-12T02:03:52.012Z,55.50
2023-02-12T02:04:52.040Z,55.60
2023-02-12T02:05:51.995Z,53.80
2023-02-12T02:06:51.996Z,56.10
2023-02-12T02:07:51.977Z,55.50
2023-02-12T02:08:51.968Z,53.60
2023-02-12T02:09:51.983Z,54.10
2023-02-12T02:10:51.953Z,54.50
2023-02-12T02:11:51.943Z,57.10
2023-02-12T02:12:51.917Z,53.80
2023-02-12T02:13:51.933Z,55.20
2023-02-12T02:14:52.898Z,56.10
2023-02-12T02:15:51.923Z,56.50
2023-02-12T02:16:51.925Z,50.70
2023-02-12T02:17:51.894Z,55.70
2023-02-12T02:18:51.900Z,52.90
2023-02-12T02:19:51.893Z,55.50
2023-02-12T02:20:51.841Z,55.70
2023-02-12T02:21:51.860Z,56.00
2023-02-12T02:22:51.838Z,52.70
2023-02-12T02:23:51.816Z,54.90
2023-02-12T02:24:51.821Z,55.10
2023-02-12T02:25:51.804Z,52.30
2023-02-12T02:26:51.818Z,51.10
2023-02-12T02:27:51.805Z,54.10
2023-02-12T02:28:51.818Z,54.00
2023-02-12T02:29:51.753Z,54.00
2023-02-12T02:30:51.790Z,52.10
2023-02-12T02:31:51.762Z,50.70
2023-02-12T02:32:51.733Z,53.10
2023-02-12T02:33:51.701Z,55.20
2023-02-12T02:34:52.732Z,52.30
2023-02-12T02:35:51.732Z,52.60
2023-02-12T02:37:00.510Z,52.10
2023-02-12T02:37:53.686Z,50.70
2023-02-12T02:38:51.700Z,51.50
2023-02-12T02:39:51.699Z,57.40
2023-02-12T02:40:51.648Z,56.00
2023-02-12T02:41:51.657Z,53.90
2023-02-12T02:42:51.616Z,53.90
2023-02-12T02:43:51.657Z,52.40
2023-02-12T02:44:51.626Z,54.00
2023-02-12T02:45:51.583Z,54.10
2023-02-12T02:46:51.650Z,57.80
2023-02-12T02:47:51.576Z,53.60
2023-02-12T02:48:51.616Z,53.00
2023-02-12T02:49:51.556Z,59.50
2023-02-12T02:50:51.541Z,58.20
2023-02-12T02:51:51.522Z,60.00
2023-02-12T02:52:51.556Z,53.30
2023-02-12T02:53:51.531Z,53.20
2023-02-12T02:54:51.510Z,57.60
2023-02-12T02:55:51.490Z,58.40
2023-02-12T02:56:51.491Z,55.90
2023-02-12T02:57:51.508Z,55.70
2023-02-12T02:58:51.471Z,53.00
2023-02-12T02:59:51.459Z,52.90
2023-02-12T03:00:51.472Z,52.80
2023-02-12T03:01:51.432Z,51.90
2023-02-12T03:02:51.481Z,51.40
2023-02-12T03:03:51.424Z,51.30
2023-02-12T03:04:51.398Z,53.80
2023-02-12T03:05:52.480Z,54.60
2023-02-12T03:06:51.394Z,53.70
2023-02-12T03:07:51.385Z,54.20
2023-02-12T03:08:51.377Z,53.60
2023-02-12T03:09:51.377Z,51.00
2023-02-12T03:10:51.397Z,51.00
2023-02-12T03:11:51.354Z,55.40
2023-02-12T03:12:51.330Z,55.40
2023-02-12T03:13:51.325Z,52.50
2023-02-12T03:14:51.319Z,54.90
2023-02-12T03:15:51.324Z,53.50
2023-02-12T03:16:51.317Z,56.60
2023-02-12T03:17:51.284Z,53.00
2023-02-12T03:18:51.282Z,53.80
2023-02-12T03:19:51.261Z,52.20
2023-02-12T03:20:51.256Z,55.40
2023-02-12T03:21:51.233Z,51.40
2023-02-12T03:22:51.242Z,51.70
2023-02-12T03:23:51.240Z,54.40
2023-02-12T03:24:51.229Z,55.00
2023-02-12T03:25:51.217Z,50.80
2023-02-12T03:26:51.201Z,54.50
2023-02-12T03:27:51.187Z,52.90
2023-02-12T03:28:51.185Z,51.40
2023-02-12T03:29:51.212Z,54.50
2023-02-12T03:30:51.225Z,56.00
2023-02-12T03:31:51.200Z,53.50
2023-02-12T03:32:51.138Z,55.50
2023-02-12T03:34:23.047Z,53.80
2023-02-12T03:34:51.111Z,54.30
2023-02-12T03:35:51.105Z,55.40
2023-02-12T03:36:51.105Z,58.30
2023-02-12T03:37:51.095Z,63.60
2023-02-12T03:38:51.087Z,64.40
2023-02-12T03:39:51.119Z,58.20
2023-02-12T03:40:51.047Z,57.50
2023-02-12T03:41:52.060Z,58.70
2023-02-12T03:42:51.049Z,57.70
2023-02-12T03:43:51.033Z,62.60
2023-02-12T03:44:51.039Z,63.90
2023-02-12T03:45:51.112Z,62.70
2023-02-12T03:46:51.011Z,66.80
2023-02-12T03:47:51.016Z,66.90
2023-02-12T03:48:50.997Z,65.10
2023-02-12T03:49:50.980Z,58.70
2023-02-12T03:50:50.969Z,56.60
2023-02-12T03:51:50.974Z,56.50
2023-02-12T03:52:50.975Z,57.50
2023-02-12T03:53:50.941Z,52.50
2023-02-12T03:54:50.924Z,58.20
2023-02-12T03:55:50.918Z,55.40
2023-02-12T03:56:50.905Z,60.30
2023-02-12T03:57:50.929Z,56.20
2023-02-12T03:58:50.876Z,52.80
2023-02-12T03:59:50.878Z,54.00
2023-02-12T04:00:50.916Z,54.80
2023-02-12T04:01:50.905Z,52.00
2023-02-12T04:02:50.850Z,54.70
2023-02-12T04:03:50.848Z,53.10
2023-02-12T04:04:50.872Z,57.50
2023-02-12T04:05:50.821Z,56.20
2023-02-12T04:06:50.808Z,51.60
2023-02-12T04:07:50.783Z,52.10
2023-02-12T04:08:50.783Z,53.50
2023-02-12T04:09:50.796Z,56.70
2023-02-12T04:10:50.784Z,54.50
2023-02-12T04:11:50.758Z,53.20
2023-02-12T04:12:51.748Z,53.50
2023-02-12T04:13:50.723Z,53.90
2023-02-12T04:14:50.735Z,55.40
2023-02-12T04:15:50.721Z,54.40
2023-02-12T04:16:50.746Z,56.00
2023-02-12T04:17:50.713Z,55.40
2023-02-12T04:18:50.666Z,52.20
2023-02-12T04:19:50.669Z,51.50
2023-02-12T04:20:50.655Z,53.50
2023-02-12T04:21:50.649Z,54.70
2023-02-12T04:22:50.679Z,53.90
2023-02-12T04:23:50.627Z,57.50
2023-02-12T04:24:50.617Z,55.00
2023-02-12T04:25:50.607Z,57.40
2023-02-12T04:26:50.611Z,61.00
2023-02-12T04:27:50.595Z,62.30
2023-02-12T04:28:50.648Z,58.70
2023-02-12T04:29:50.568Z,60.90
2023-02-12T04:30:50.600Z,60.30
2023-02-12T04:31:50.635Z,58.70
2023-02-12T04:32:50.535Z,61.00
2023-02-12T04:33:50.548Z,62.10
2023-02-12T04:34:50.522Z,59.80
2023-02-12T04:35:50.509Z,59.70
2023-02-12T04:36:50.500Z,62.20
2023-02-12T04:37:50.504Z,59.60
2023-02-12T04:38:50.490Z,62.60
2023-02-12T04:39:50.496Z,63.70
2023-02-12T04:40:50.465Z,68.50
2023-02-12T04:41:50.449Z,61.90
2023-02-12T04:42:50.441Z,61.50
2023-02-12T04:43:50.438Z,68.50
2023-02-12T04:44:51.459Z,63.60
2023-02-12T04:45:50.443Z,62.90
2023-02-12T04:46:50.409Z,61.50
2023-02-12T04:47:50.411Z,62.20
2023-02-12T04:48:50.386Z,66.30
2023-02-12T04:49:50.402Z,63.40
2023-02-12T04:50:50.397Z,63.60
2023-02-12T04:51:50.369Z,67.10
2023-02-12T04:52:50.364Z,65.50
2023-02-12T04:53:50.340Z,65.50
2023-02-12T04:54:50.323Z,68.60
2023-02-12T04:55:50.346Z,64.10
2023-02-12T04:56:50.313Z,68.80
2023-02-12T04:57:50.297Z,67.50
2023-02-12T04:58:50.294Z,75.80
2023-02-12T04:59:50.292Z,69.50
2023-02-12T05:00:50.294Z,82.20
2023-02-12T05:01:50.336Z,69.20
2023-02-12T05:02:50.251Z,76.50
2023-02-12T05:03:50.245Z,73.30
2023-02-12T05:04:50.265Z,65.50
2023-02-12T05:05:50.223Z,75.40
2023-02-12T05:06:50.231Z,73.90
2023-02-12T05:07:50.217Z,73.00
2023-02-12T05:08:50.207Z,70.80
2023-02-12T05:09:50.191Z,69.90
2023-02-12T05:10:50.180Z,76.50
2023-02-12T05:11:50.172Z,71.80
2023-02-12T05:12:50.189Z,71.10
2023-02-12T05:13:50.150Z,73.50
2023-02-12T05:14:50.168Z,77.60
2023-02-12T05:15:50.173Z,72.10
2023-02-12T05:16:50.132Z,71.80
2023-02-12T05:17:50.120Z,75.90
2023-02-12T05:18:50.128Z,71.50
2023-02-12T05:19:50.087Z,76.60
2023-02-12T05:20:50.088Z,71.90
2023-02-12T05:21:50.082Z,69.90
2023-02-12T05:22:50.054Z,74.20
2023-02-12T05:23:50.065Z,80.70
2023-02-12T05:24:50.055Z,73.00
2023-02-12T05:25:50.079Z,71.00
2023-02-12T05:26:50.017Z,81.40
2023-02-12T05:27:50.019Z,77.50
2023-02-12T05:28:50.010Z,74.60
2023-02-12T05:29:50.024Z,80.70
2023-02-12T05:30:50.083Z,76.50
2023-02-12T05:31:50.114Z,78.40
2023-02-12T05:32:49.969Z,74.30
2023-02-12T05:33:49.935Z,79.30
2023-02-12T05:34:49.935Z,84.00
2023-02-12T05:35:49.953Z,86.50
2023-02-12T05:36:49.936Z,79.40
2023-02-12T05:37:49.926Z,82.30
2023-02-12T05:38:49.884Z,79.80
2023-02-12T05:39:49.944Z,79.40
2023-02-12T05:40:49.915Z,82.20
2023-02-12T05:41:49.858Z,81.20
2023-02-12T05:42:49.921Z,80.60
2023-02-12T05:43:49.995Z,85.40
2023-02-12T05:44:49.829Z,80.20
2023-02-12T05:45:49.829Z,84.10
2023-02-12T05:46:49.912Z,76.40
2023-02-12T05:47:49.835Z,88.80
2023-02-12T05:48:49.821Z,82.40
2023-02-12T05:49:49.785Z,82.30
2023-02-12T05:50:52.225Z,82.80
2023-02-12T05:51:49.852Z,81.30
2023-02-12T05:52:49.761Z,80.90
2023-02-12T05:53:49.772Z,84.50
2023-02-12T05:54:49.728Z,82.70
2023-02-12T05:55:49.731Z,79.50
2023-02-12T05:56:49.720Z,83.70
2023-02-12T05:57:49.703Z,97.00
2023-02-12T05:58:49.717Z,88.60
2023-02-12T05:59:49.710Z,78.10
2023-02-12T06:00:49.684Z,80.30
2023-02-12T06:01:49.687Z,82.70
2023-02-12T06:02:49.722Z,90.20
2023-02-12T06:03:49.686Z,83.60
2023-02-12T06:04:49.661Z,85.00
2023-02-12T06:05:49.638Z,84.30
2023-02-12T06:06:49.613Z,85.60
2023-02-12T06:07:49.635Z,80.60
2023-02-12T06:08:49.633Z,85.30
2023-02-12T06:09:49.597Z,89.70
2023-02-12T06:10:49.595Z,92.80
2023-02-12T06:11:49.566Z,88.70
2023-02-12T06:12:49.566Z,90.40
2023-02-12T06:13:49.587Z,94.30
2023-02-12T06:14:49.540Z,107.30
2023-02-12T06:15:49.569Z,87.30
2023-02-12T06:16:49.650Z,85.10
2023-02-12T06:17:49.526Z,89.10
2023-02-12T06:18:49.512Z,84.20
2023-02-12T06:19:49.520Z,89.80
2023-02-12T06:20:49.473Z,89.00
2023-02-12T06:21:49.471Z,97.50
2023-02-12T06:22:49.484Z,85.10
2023-02-12T06:23:49.462Z,93.50
2023-02-12T06:24:49.470Z,120.70
2023-02-12T06:25:49.446Z,95.90
2023-02-12T06:26:49.542Z,100.50
2023-02-12T06:27:49.487Z,94.80
2023-02-12T06:28:49.414Z,78.30
2023-02-12T06:29:49.407Z,93.10
2023-02-12T06:30:49.430Z,79.80
2023-02-12T06:31:49.448Z,80.30
2023-02-12T06:32:49.384Z,76.90
2023-02-12T06:33:49.376Z,92.90
2023-02-12T06:34:49.355Z,108.10
2023-02-12T06:35:49.337Z,77.50
2023-02-12T06:36:49.379Z,92.90
2023-02-12T06:37:49.345Z,83.40
2023-02-12T06:38:49.319Z,83.70
2023-02-12T06:39:49.311Z,84.80
2023-02-12T06:40:49.319Z,92.00
2023-02-12T06:41:50.294Z,84.00
2023-02-12T06:42:50.440Z,84.10
2023-02-12T06:43:50.296Z,76.90
2023-02-12T06:44:51.923Z,84.90
2023-02-12T06:45:49.237Z,78.90
2023-02-12T06:46:49.275Z,84.70
2023-02-12T06:47:49.239Z,82.60
2023-02-12T06:48:49.212Z,80.90
2023-02-12T06:49:49.234Z,80.90
2023-02-12T06:50:49.236Z,74.60
2023-02-12T06:51:49.182Z,82.00
2023-02-12T06:52:49.174Z,80.80
2023-02-12T06:53:49.177Z,83.40
2023-02-12T06:54:49.156Z,85.10
2023-02-12T06:55:49.187Z,77.20
2023-02-12T06:56:49.136Z,82.20
2023-02-12T06:57:49.173Z,79.10
2023-02-12T06:58:49.112Z,86.70
2023-02-12T06:59:49.096Z,78.70
2023-02-12T07:00:49.143Z,76.30
2023-02-12T07:01:49.119Z,82.00
2023-02-12T07:02:49.079Z,77.90
2023-02-12T07:03:49.107Z,77.90
2023-02-12T07:04:49.058Z,74.80
2023-02-12T07:05:49.042Z,77.10
2023-02-12T07:06:49.055Z,84.30
2023-02-12T07:07:49.022Z,75.30
2023-02-12T07:08:49.008Z,82.70
2023-02-12T07:09:49.037Z,84.10
2023-02-12T07:10:48.993Z,86.00
2023-02-12T07:11:48.986Z,81.40
2023-02-12T07:12:49.014Z,87.70
2023-02-12T07:13:48.960Z,80.30
2023-02-12T07:14:48.954Z,85.60
2023-02-12T07:15:48.936Z,77.00
2023-02-12T07:16:48.965Z,83.20
2023-02-12T07:17:48.955Z,76.80
2023-02-12T07:18:48.909Z,82.60
2023-02-12T07:19:48.917Z,73.20
2023-02-12T07:20:48.913Z,73.70
2023-02-12T07:21:48.910Z,81.90
2023-02-12T07:22:48.884Z,79.70
2023-02-12T07:23:51.035Z,65.00
2023-02-12T07:24:49.858Z,73.80
2023-02-12T07:25:48.865Z,84.70
2023-02-12T07:26:48.842Z,69.20
2023-02-12T07:27:48.827Z,76.30
2023-02-12T07:28:48.803Z,75.10
2023-02-12T07:29:48.809Z,73.30
2023-02-12T07:30:48.823Z,65.70
2023-02-12T07:31:48.925Z,75.00
2023-02-12T07:32:48.781Z,71.00
2023-02-12T07:33:48.786Z,69.70
2023-02-12T07:34:48.758Z,67.90
2023-02-12T07:35:48.764Z,71.20
2023-02-12T07:36:48.760Z,82.30
2023-02-12T07:37:48.745Z,68.80
2023-02-12T07:38:48.718Z,94.10
2023-02-12T07:39:48.718Z,73.60
2023-02-12T07:40:48.711Z,74.90
2023-02-12T07:41:48.696Z,71.90
2023-02-12T07:42:48.677Z,76.40
2023-02-12T07:43:48.676Z,79.20
2023-02-12T07:44:48.647Z,77.80
2023-02-12T07:45:48.688Z,69.80
2023-02-12T07:46:48.950Z,78.90
2023-02-12T07:47:48.624Z,78.60
2023-02-12T07:48:48.612Z,70.60
2023-02-12T07:49:48.608Z,68.40
2023-02-12T07:50:48.625Z,75.30
2023-02-12T07:51:48.579Z,75.50
2023-02-12T07:52:48.581Z,74.50
2023-02-12T07:53:48.588Z,76.80
2023-02-12T07:54:48.561Z,79.00
2023-02-12T07:55:48.554Z,72.30
2023-02-12T07:56:48.578Z,71.40
2023-02-12T07:57:48.541Z,68.10
2023-02-12T07:58:48.530Z,84.60
2023-02-12T07:59:48.505Z,118.10
2023-02-12T08:00:48.503Z,118.20
2023-02-12T08:01:48.516Z,66.00
2023-02-12T08:02:48.544Z,89.00
2023-02-12T08:03:48.482Z,72.00
2023-02-12T08:04:48.498Z,76.90
2023-02-12T08:05:48.457Z,105.20
2023-02-12T08:06:48.444Z,61.00
2023-02-12T08:07:48.488Z,88.50
2023-02-12T08:08:48.423Z,60.10
2023-02-12T08:09:48.444Z,72.40
2023-02-12T08:10:48.417Z,59.10
2023-02-12T08:11:48.415Z,61.60
2023-02-12T08:12:48.380Z,70.30
2023-02-12T08:13:48.378Z,65.30
2023-02-12T08:14:48.375Z,68.20
2023-02-12T08:15:48.343Z,59.30
2023-02-12T08:16:48.463Z,65.20
2023-02-12T08:17:48.329Z,64.70
2023-02-12T08:18:48.327Z,67.40
2023-02-12T08:19:48.345Z,65.40
2023-02-12T08:20:48.303Z,71.40
2023-02-12T08:21:48.312Z,73.40
2023-02-12T08:22:48.305Z,70.20
2023-02-12T08:23:49.266Z,66.50
2023-02-12T08:24:48.270Z,63.40
2023-02-12T08:25:48.321Z,69.70
2023-02-12T08:26:48.256Z,65.40
2023-02-12T08:27:48.242Z,80.20
2023-02-12T08:28:48.225Z,65.80
2023-02-12T08:29:48.212Z,62.60
2023-02-12T08:30:48.261Z,71.00
2023-02-12T08:31:48.260Z,73.30
2023-02-12T08:32:48.189Z,69.00
2023-02-12T08:33:48.184Z,68.10
2023-02-12T08:34:48.186Z,70.80
2023-02-12T08:35:48.155Z,68.30
2023-02-12T08:36:48.150Z,67.90
2023-02-12T08:37:48.141Z,71.60
2023-02-12T08:38:48.111Z,66.70
2023-02-12T08:39:48.117Z,77.40
2023-02-12T08:40:48.156Z,73.60
2023-02-12T08:41:48.117Z,70.30
2023-02-12T08:42:48.089Z,72.30
2023-02-12T08:43:48.079Z,68.10
2023-02-12T08:44:48.064Z,64.50
2023-02-12T08:45:48.134Z,66.00
2023-02-12T08:46:48.097Z,64.10
2023-02-12T08:47:48.019Z,70.80
2023-02-12T08:48:48.009Z,70.80
2023-02-12T08:49:48.009Z,73.60
2023-02-12T08:50:48.005Z,69.90
2023-02-12T08:51:48.029Z,74.60
2023-02-12T08:52:47.985Z,71.70
2023-02-12T08:53:48.076Z,71.30
2023-02-12T08:54:47.956Z,74.20
2023-02-12T08:55:47.951Z,76.30
2023-02-12T08:56:47.941Z,70.60
2023-02-12T08:57:47.949Z,74.80
2023-02-12T08:58:47.924Z,75.40
2023-02-12T08:59:47.900Z,74.70
2023-02-12T09:00:47.904Z,75.60
2023-02-12T09:01:47.877Z,70.70
2023-02-12T09:02:47.913Z,76.00
2023-02-12T09:03:47.863Z,72.40
2023-02-12T09:04:47.881Z,69.50
2023-02-12T09:05:47.846Z,68.40
2023-02-12T09:06:47.855Z,69.80
2023-02-12T09:07:47.808Z,77.00
2023-02-12T09:08:47.813Z,72.40
2023-02-12T09:09:47.827Z,71.10
2023-02-12T09:10:47.797Z,70.00
2023-02-12T09:11:47.796Z,73.40
2023-02-12T09:12:47.776Z,68.80
2023-02-12T09:13:47.778Z,77.70
2023-02-12T09:14:47.786Z,77.60
2023-02-12T09:15:47.737Z,69.90
2023-02-12T09:16:47.801Z,74.30
2023-02-12T09:17:47.727Z,71.30
2023-02-12T09:18:47.720Z,77.80
2023-02-12T09:19:47.729Z,74.40
2023-02-12T09:20:47.695Z,76.50
2023-02-12T09:21:47.702Z,72.50
2023-02-12T09:22:47.680Z,74.30
2023-02-12T09:23:47.666Z,75.70
2023-02-12T09:24:47.651Z,74.90
2023-02-12T09:25:47.679Z,76.60
2023-02-12T09:26:47.629Z,77.10
2023-02-12T09:27:47.644Z,80.80
2023-02-12T09:28:47.647Z,79.70
2023-02-12T09:29:47.619Z,74.50
2023-02-12T09:30:47.717Z,71.70
2023-02-12T09:31:47.725Z,78.30
2023-02-12T09:32:47.577Z,84.10
2023-02-12T09:33:55.260Z,93.80
2023-02-12T09:34:47.565Z,74.40
2023-02-12T09:35:47.536Z,79.90
2023-02-12T09:36:47.533Z,78.80
2023-02-12T09:37:47.510Z,70.30
2023-02-12T09:38:47.507Z,77.00
2023-02-12T09:39:50.174Z,76.90
2023-02-12T09:40:47.495Z,78.50
2023-02-12T09:41:47.488Z,80.00
2023-02-12T09:42:47.468Z,72.50
2023-02-12T09:43:47.460Z,73.60
2023-02-12T09:44:47.446Z,73.70
2023-02-12T09:45:49.127Z,67.00
2023-02-12T09:46:47.463Z,68.60
2023-02-12T09:47:47.413Z,70.50
2023-02-12T09:48:47.422Z,70.80
2023-02-12T09:49:47.392Z,64.60
2023-02-12T09:50:47.382Z,67.50
2023-02-12T09:51:49.722Z,63.60
2023-02-12T09:52:47.370Z,67.90
2023-02-12T09:53:47.373Z,69.00
2023-02-12T09:54:47.338Z,63.30
2023-02-12T09:55:47.340Z,69.80
2023-02-12T09:56:47.340Z,65.30
2023-02-12T09:57:47.357Z,66.70
2023-02-12T09:58:47.324Z,66.90
2023-02-12T09:59:47.347Z,63.30
2023-02-12T10:00:47.278Z,63.00
2023-02-12T10:01:47.373Z,67.00
2023-02-12T10:02:47.271Z,66.80
2023-02-12T10:03:47.256Z,64.70
2023-02-12T10:05:00.170Z,59.00
2023-02-12T10:05:49.231Z,63.00
2023-02-12T10:06:47.229Z,65.10
2023-02-12T10:07:47.215Z,64.80
2023-02-12T10:08:47.212Z,67.20
2023-02-12T10:09:47.246Z,63.50
2023-02-12T10:10:47.200Z,63.70
2023-02-12T10:11:47.188Z,68.70
2023-02-12T10:12:47.162Z,63.70
2023-02-12T10:13:47.157Z,60.20
2023-02-12T10:14:47.147Z,60.50
2023-02-12T10:15:47.218Z,59.70
2023-02-12T10:16:47.129Z,66.10
2023-02-12T10:17:47.129Z,61.00
2023-02-12T10:18:47.123Z,70.90
2023-02-12T10:19:47.102Z,68.30
2023-02-12T10:20:47.119Z,64.10
2023-02-12T10:21:47.078Z,60.60
2023-02-12T10:22:56.576Z,57.60
2023-02-12T10:23:48.071Z,56.60
2023-02-12T10:24:47.067Z,51.20
2023-02-12T10:25:47.054Z,55.80
2023-02-12T10:26:47.093Z,52.00
2023-02-12T10:27:47.025Z,55.70
2023-02-12T10:28:47.013Z,56.20
2023-02-12T10:29:47.005Z,54.80
2023-02-12T10:30:47.017Z,58.80
2023-02-12T10:31:47.212Z,58.50
2023-02-12T10:32:46.993Z,60.10
2023-02-12T10:33:46.965Z,58.30
2023-02-12T10:34:46.959Z,60.00
2023-02-12T10:35:46.937Z,59.30
2023-02-12T10:36:46.923Z,62.10
2023-02-12T10:37:46.934Z,59.40
2023-02-12T10:38:47.283Z,57.50
2023-02-12T10:39:47.910Z,51.90
2023-02-12T10:40:46.891Z,57.90
2023-02-12T10:41:46.882Z,60.00
2023-02-12T10:42:46.893Z,54.30
2023-02-12T10:43:46.874Z,55.90
2023-02-12T10:44:46.824Z,53.40
2023-02-12T10:45:46.862Z,53.90
2023-02-12T10:46:46.936Z,54.70
2023-02-12T10:47:46.818Z,54.40
2023-02-12T10:48:46.835Z,53.20
2023-02-12T10:49:46.796Z,54.70
2023-02-12T10:50:46.798Z,48.70
2023-02-12T10:51:46.794Z,46.70
2023-02-12T10:52:46.755Z,50.00
2023-02-12T10:53:46.748Z,48.10
2023-02-12T10:54:46.748Z,50.70
2023-02-12T10:55:46.744Z,51.50
2023-02-12T10:56:46.724Z,49.10
2023-02-12T10:57:46.709Z,48.20
2023-02-12T10:58:46.689Z,49.70
2023-02-12T10:59:46.690Z,51.80
2023-02-12T11:00:46.715Z,48.70
2023-02-12T11:01:46.683Z,47.70
2023-02-12T11:02:46.737Z,42.90
2023-02-12T11:03:46.667Z,46.30
2023-02-12T11:04:46.685Z,43.40
2023-02-12T11:05:46.639Z,47.00
2023-02-12T11:06:46.634Z,48.60
2023-02-12T11:07:46.611Z,42.40
2023-02-12T11:08:46.601Z,42.80
2023-02-12T11:09:46.610Z,40.80
2023-02-12T11:10:46.584Z,45.90
2023-02-12T11:11:47.368Z,46.60
2023-02-12T11:12:46.543Z,49.10
2023-02-12T11:13:46.568Z,47.00
2023-02-12T11:14:46.605Z,45.80
2023-02-12T11:15:46.587Z,47.10
2023-02-12T11:16:46.537Z,45.30
2023-02-12T11:17:46.590Z,45.40
2023-02-12T11:18:46.526Z,45.40
2023-02-12T11:19:46.491Z,44.10
2023-02-12T11:20:46.483Z,43.30
2023-02-12T11:21:46.492Z,42.90
2023-02-12T11:22:46.476Z,44.70
2023-02-12T11:23:46.467Z,43.70
2023-02-12T11:24:46.433Z,40.20
2023-02-12T11:25:46.432Z,41.40
2023-02-12T11:26:46.424Z,46.10
2023-02-12T11:27:46.408Z,43.70
2023-02-12T11:28:46.539Z,45.40
2023-02-12T11:29:47.995Z,39.70
2023-02-12T11:30:47.398Z,42.30
2023-02-12T11:31:46.485Z,44.00
2023-02-12T11:32:46.356Z,43.80
2023-02-12T11:33:47.338Z,43.70
2023-02-12T11:34:46.340Z,41.60
2023-02-12T11:35:46.345Z,41.20
2023-02-12T11:36:46.326Z,42.40
2023-02-12T11:37:46.325Z,39.10
2023-02-12T11:38:46.335Z,38.10
2023-02-12T11:39:46.311Z,37.10
2023-02-12T11:40:46.314Z,34.80
2023-02-12T11:41:46.257Z,36.40
2023-02-12T11:42:46.272Z,37.80
2023-02-12T11:43:46.311Z,39.00
2023-02-12T11:44:46.239Z,38.70
2023-02-12T11:45:46.248Z,35.00
2023-02-12T11:46:46.241Z,33.40
2023-02-12T11:47:46.238Z,33.70
2023-02-12T11:48:46.233Z,35.00
2023-02-12T11:49:46.197Z,32.10
2023-02-12T11:50:46.206Z,35.30
2023-02-12T11:51:46.194Z,35.30
2023-02-12T11:52:46.180Z,32.50
2023-02-12T11:53:46.156Z,32.30
2023-02-12T11:54:46.133Z,33.90
2023-02-12T11:55:46.135Z,31.20
2023-02-12T11:56:46.138Z,31.30
2023-02-12T11:57:46.110Z,29.40
2023-02-12T11:58:46.099Z,32.30
2023-02-12T11:59:46.090Z,33.60
2023-02-12T12:00:46.106Z,29.30
2023-02-12T12:01:46.104Z,30.70
2023-02-12T12:02:46.090Z,27.40
2023-02-12T12:03:46.053Z,32.80
2023-02-12T12:04:46.036Z,31.40
2023-02-12T12:05:46.031Z,29.80
2023-02-12T12:06:46.019Z,28.80
2023-02-12T12:07:46.024Z,31.10
2023-02-12T12:08:45.998Z,30.70
2023-02-12T12:09:45.981Z,29.30
2023-02-12T12:10:45.989Z,28.40
2023-02-12T12:11:45.970Z,28.00
2023-02-12T12:12:46.009Z,29.90
2023-02-12T12:13:45.953Z,29.10
2023-02-12T12:14:45.945Z,27.20
2023-02-12T12:15:45.943Z,29.20
2023-02-12T12:16:45.956Z,27.20
2023-02-12T12:17:45.909Z,26.50
2023-02-12T12:18:45.905Z,26.10
2023-02-12T12:19:45.884Z,29.30
2023-02-12T12:20:45.894Z,26.40
2023-02-12T12:21:45.912Z,25.50
2023-02-12T12:22:45.853Z,25.90
2023-02-12T12:23:45.843Z,25.10
2023-02-12T12:24:45.841Z,28.10
2023-02-12T12:25:45.824Z,26.40
2023-02-12T12:26:45.824Z,27.90
2023-02-12T12:27:45.831Z,27.10
2023-02-12T12:28:45.812Z,25.00
2023-02-12T12:29:45.793Z,25.90
2023-02-12T12:30:45.788Z,24.60
2023-02-12T12:31:45.834Z,25.50
2023-02-12T12:32:45.754Z,24.60
2023-02-12T12:33:45.773Z,26.00
2023-02-12T12:34:45.737Z,28.70
2023-02-12T12:35:45.723Z,31.20
2023-02-12T12:36:45.731Z,42.60
2023-02-12T12:37:45.728Z,30.80
2023-02-12T12:38:45.711Z,31.30
2023-02-12T12:39:45.688Z,26.90
2023-02-12T12:40:45.678Z,25.60
2023-02-12T12:41:45.657Z,29.80
2023-02-12T12:42:45.665Z,27.70
2023-02-12T12:43:45.649Z,26.00
2023-02-12T12:44:45.637Z,27.40
2023-02-12T12:45:45.647Z,27.50
2023-02-12T12:46:45.618Z,28.10
2023-02-12T12:47:45.625Z,28.70
2023-02-12T12:48:45.594Z,28.10
2023-02-12T12:49:45.578Z,27.70
2023-02-12T12:50:45.571Z,28.80
2023-02-12T12:51:45.567Z,28.10
2023-02-12T12:52:45.585Z,25.60